sensor_id;sensor_type;location;lat;lon;timestamp;P1;durP1;ratioP1;P2;durP2;ratioP2
53253;SDS011;39148;53.332;6.922;2023-09-08T00:02:22;6.30;;;3.47;;
53253;SDS011;39148;53.332;6.922;2023-09-08T00:04:49;4.28;;;2.88;;
53253;SDS011;39148;53.332;6.922;2023-09-08T00:07:14;5.53;;;3.28;;
53253;SDS011;39148;53.332;6.922;2023-09-08T00:09:40;5.65;;;3.38;;
53253;SDS011;39148;53.332;6.922;2023-09-08T00:12:06;5.45;;;3.20;;
53253;SDS011;39148;53.332;6.922;2023-09-08T00:14:31;4.82;;;3.20;;
53253;SDS011;39148;53.332;6.922;2023-09-08T00:16:57;4.53;;;3.40;;
53253;SDS011;39148;53.332;6.922;2023-09-08T00:19:23;5.90;;;3.13;;
53253;SDS011;39148;53.332;6.922;2023-09-08T00:21:48;5.75;;;3.30;;
53253;SDS011;39148;53.332;6.922;2023-09-08T00:24:14;5.30;;;3.10;;
53253;SDS011;39148;53.332;6.922;2023-09-08T00:26:40;4.80;;;3.10;;
53253;SDS011;39148;53.332;6.922;2023-09-08T00:29:06;4.50;;;3.03;;
53253;SDS011;39148;53.332;6.922;2023-09-08T00:31:32;5.07;;;3.25;;
53253;SDS011;39148;53.332;6.922;2023-09-08T00:33:58;6.65;;;3.30;;
53253;SDS011;39148;53.332;6.922;2023-09-08T00:36:24;5.75;;;3.20;;
53253;SDS011;39148;53.332;6.922;2023-09-08T00:38:50;5.07;;;3.45;;
53253;SDS011;39148;53.332;6.922;2023-09-08T00:41:15;5.65;;;3.45;;
53253;SDS011;39148;53.332;6.922;2023-09-08T00:43:41;5.70;;;3.38;;
53253;SDS011;39148;53.332;6.922;2023-09-08T00:46:07;6.18;;;3.20;;
53253;SDS011;39148;53.332;6.922;2023-09-08T00:48:34;5.30;;;3.10;;
53253;SDS011;39148;53.332;6.922;2023-09-08T00:51:00;5.63;;;3.45;;
53253;SDS011;39148;53.332;6.922;2023-09-08T00:53:26;4.43;;;2.90;;
53253;SDS011;39148;53.332;6.922;2023-09-08T00:55:52;5.07;;;2.72;;
53253;SDS011;39148;53.332;6.922;2023-09-08T00:58:19;4.50;;;3.00;;
53253;SDS011;39148;53.332;6.922;2023-09-08T01:00:45;4.85;;;3.00;;
53253;SDS011;39148;53.332;6.922;2023-09-08T01:03:12;5.22;;;3.05;;
53253;SDS011;39148;53.332;6.922;2023-09-08T01:05:37;5.10;;;3.30;;
53253;SDS011;39148;53.332;6.922;2023-09-08T01:08:04;4.43;;;2.63;;
53253;SDS011;39148;53.332;6.922;2023-09-08T01:10:31;4.72;;;3.28;;
53253;SDS011;39148;53.332;6.922;2023-09-08T01:12:57;5.53;;;3.13;;
53253;SDS011;39148;53.332;6.922;2023-09-08T01:15:23;4.65;;;3.38;;
53253;SDS011;39148;53.332;6.922;2023-09-08T01:17:48;6.90;;;3.70;;
53253;SDS011;39148;53.332;6.922;2023-09-08T01:25:55;5.68;;;3.45;;
53253;SDS011;39148;53.332;6.922;2023-09-08T01:28:31;5.88;;;3.35;;
53253;SDS011;39148;53.332;6.922;2023-09-08T01:30:58;6.60;;;3.55;;
53253;SDS011;39148;53.332;6.922;2023-09-08T01:33:24;4.65;;;3.20;;
53253;SDS011;39148;53.332;6.922;2023-09-08T01:35:50;4.32;;;2.95;;
53253;SDS011;39148;53.332;6.922;2023-09-08T01:38:16;5.22;;;3.13;;
53253;SDS011;39148;53.332;6.922;2023-09-08T01:40:42;5.65;;;3.20;;
53253;SDS011;39148;53.332;6.922;2023-09-08T01:43:08;5.00;;;3.10;;
53253;SDS011;39148;53.332;6.922;2023-09-08T01:45:33;6.55;;;2.95;;
53253;SDS011;39148;53.332;6.922;2023-09-08T01:47:59;4.93;;;3.05;;
53253;SDS011;39148;53.332;6.922;2023-09-08T01:50:25;5.32;;;3.38;;
53253;SDS011;39148;53.332;6.922;2023-09-08T01:52:51;7.18;;;3.22;;
53253;SDS011;39148;53.332;6.922;2023-09-08T01:55:17;5.97;;;3.00;;
53253;SDS011;39148;53.332;6.922;2023-09-08T01:57:43;4.70;;;3.10;;
53253;SDS011;39148;53.332;6.922;2023-09-08T02:00:10;5.13;;;3.25;;
53253;SDS011;39148;53.332;6.922;2023-09-08T02:02:36;4.72;;;3.15;;
53253;SDS011;39148;53.332;6.922;2023-09-08T02:05:02;6.45;;;3.20;;
53253;SDS011;39148;53.332;6.922;2023-09-08T02:07:28;5.75;;;3.38;;
53253;SDS011;39148;53.332;6.922;2023-09-08T02:09:54;6.53;;;3.65;;
53253;SDS011;39148;53.332;6.922;2023-09-08T02:12:20;5.47;;;3.70;;
53253;SDS011;39148;53.332;6.922;2023-09-08T02:14:49;5.07;;;3.30;;
53253;SDS011;39148;53.332;6.922;2023-09-08T02:17:17;6.60;;;3.67;;
53253;SDS011;39148;53.332;6.922;2023-09-08T02:19:43;5.15;;;3.70;;
53253;SDS011;39148;53.332;6.922;2023-09-08T02:22:08;6.32;;;4.00;;
53253;SDS011;39148;53.332;6.922;2023-09-08T02:24:34;6.35;;;4.15;;
53253;SDS011;39148;53.332;6.922;2023-09-08T02:27:00;7.65;;;4.45;;
53253;SDS011;39148;53.332;6.922;2023-09-08T02:29:26;6.32;;;4.20;;
53253;SDS011;39148;53.332;6.922;2023-09-08T02:31:51;6.25;;;4.43;;
53253;SDS011;39148;53.332;6.922;2023-09-08T02:34:17;6.85;;;4.57;;
53253;SDS011;39148;53.332;6.922;2023-09-08T02:36:43;7.70;;;4.68;;
53253;SDS011;39148;53.332;6.922;2023-09-08T02:39:08;7.35;;;4.45;;
53253;SDS011;39148;53.332;6.922;2023-09-08T02:41:36;7.75;;;4.47;;
53253;SDS011;39148;53.332;6.922;2023-09-08T02:44:01;6.43;;;4.53;;
53253;SDS011;39148;53.332;6.922;2023-09-08T02:46:27;7.03;;;4.60;;
53253;SDS011;39148;53.332;6.922;2023-09-08T02:48:53;7.35;;;4.57;;
53253;SDS011;39148;53.332;6.922;2023-09-08T02:51:18;6.88;;;4.50;;
53253;SDS011;39148;53.332;6.922;2023-09-08T02:53:44;6.60;;;4.65;;
53253;SDS011;39148;53.332;6.922;2023-09-08T02:56:10;6.22;;;4.10;;
53253;SDS011;39148;53.332;6.922;2023-09-08T02:58:36;7.10;;;4.40;;
53253;SDS011;39148;53.332;6.922;2023-09-08T03:01:11;5.97;;;4.50;;
53253;SDS011;39148;53.332;6.922;2023-09-08T03:03:43;6.90;;;4.03;;
53253;SDS011;39148;53.332;6.922;2023-09-08T03:06:09;6.88;;;4.70;;
53253;SDS011;39148;53.332;6.922;2023-09-08T03:08:35;6.68;;;4.70;;
53253;SDS011;39148;53.332;6.922;2023-09-08T03:11:02;7.03;;;4.70;;
53253;SDS011;39148;53.332;6.922;2023-09-08T03:13:28;8.98;;;4.65;;
53253;SDS011;39148;53.332;6.922;2023-09-08T03:15:54;6.72;;;4.78;;
53253;SDS011;39148;53.332;6.922;2023-09-08T03:18:21;7.53;;;4.55;;
53253;SDS011;39148;53.332;6.922;2023-09-08T03:20:50;8.45;;;4.70;;
53253;SDS011;39148;53.332;6.922;2023-09-08T03:23:16;7.93;;;4.47;;
53253;SDS011;39148;53.332;6.922;2023-09-08T03:25:42;6.35;;;4.65;;
53253;SDS011;39148;53.332;6.922;2023-09-08T03:28:08;6.93;;;4.68;;
53253;SDS011;39148;53.332;6.922;2023-09-08T03:30:34;7.93;;;4.78;;
53253;SDS011;39148;53.332;6.922;2023-09-08T03:33:00;7.07;;;4.55;;
53253;SDS011;39148;53.332;6.922;2023-09-08T03:35:26;7.05;;;4.63;;
53253;SDS011;39148;53.332;6.922;2023-09-08T03:37:51;6.72;;;4.43;;
53253;SDS011;39148;53.332;6.922;2023-09-08T03:40:17;7.55;;;4.47;;
53253;SDS011;39148;53.332;6.922;2023-09-08T03:42:43;6.55;;;4.47;;
53253;SDS011;39148;53.332;6.922;2023-09-08T03:45:09;8.48;;;4.95;;
53253;SDS011;39148;53.332;6.922;2023-09-08T03:47:35;8.07;;;4.65;;
53253;SDS011;39148;53.332;6.922;2023-09-08T03:50:00;6.57;;;4.50;;
53253;SDS011;39148;53.332;6.922;2023-09-08T03:52:26;6.78;;;4.78;;
53253;SDS011;39148;53.332;6.922;2023-09-08T03:54:52;7.07;;;4.95;;
53253;SDS011;39148;53.332;6.922;2023-09-08T03:57:18;5.95;;;4.13;;
53253;SDS011;39148;53.332;6.922;2023-09-08T03:59:43;6.28;;;4.18;;
53253;SDS011;39148;53.332;6.922;2023-09-08T04:02:09;6.30;;;4.40;;
53253;SDS011;39148;53.332;6.922;2023-09-08T04:04:35;6.57;;;4.10;;
53253;SDS011;39148;53.332;6.922;2023-09-08T04:07:01;7.93;;;4.45;;
53253;SDS011;39148;53.332;6.922;2023-09-08T04:09:26;7.75;;;4.78;;
53253;SDS011;39148;53.332;6.922;2023-09-08T04:11:53;6.82;;;4.63;;
53253;SDS011;39148;53.332;6.922;2023-09-08T04:14:20;7.57;;;4.78;;
53253;SDS011;39148;53.332;6.922;2023-09-08T04:16:48;7.40;;;5.10;;
53253;SDS011;39148;53.332;6.922;2023-09-08T04:19:14;7.13;;;5.05;;
53253;SDS011;39148;53.332;6.922;2023-09-08T04:21:40;6.85;;;4.57;;
53253;SDS011;39148;53.332;6.922;2023-09-08T04:24:06;6.47;;;4.68;;
53253;SDS011;39148;53.332;6.922;2023-09-08T04:26:32;6.05;;;4.38;;
53253;SDS011;39148;53.332;6.922;2023-09-08T04:28:57;6.97;;;5.10;;
53253;SDS011;39148;53.332;6.922;2023-09-08T04:31:23;7.30;;;5.07;;
53253;SDS011;39148;53.332;6.922;2023-09-08T04:33:49;7.35;;;5.47;;
53253;SDS011;39148;53.332;6.922;2023-09-08T04:36:14;7.50;;;5.25;;
53253;SDS011;39148;53.332;6.922;2023-09-08T04:38:40;6.68;;;4.82;;
53253;SDS011;39148;53.332;6.922;2023-09-08T04:41:06;6.45;;;5.30;;
53253;SDS011;39148;53.332;6.922;2023-09-08T04:43:32;7.97;;;4.53;;
53253;SDS011;39148;53.332;6.922;2023-09-08T04:45:58;9.13;;;5.10;;
53253;SDS011;39148;53.332;6.922;2023-09-08T04:48:23;8.10;;;5.78;;
53253;SDS011;39148;53.332;6.922;2023-09-08T04:50:49;7.57;;;5.15;;
53253;SDS011;39148;53.332;6.922;2023-09-08T04:53:16;7.07;;;5.18;;
53253;SDS011;39148;53.332;6.922;2023-09-08T04:55:42;7.10;;;5.60;;
53253;SDS011;39148;53.332;6.922;2023-09-08T04:58:08;7.35;;;5.55;;
53253;SDS011;39148;53.332;6.922;2023-09-08T05:00:34;8.73;;;5.82;;
53253;SDS011;39148;53.332;6.922;2023-09-08T05:03:00;7.65;;;5.60;;
53253;SDS011;39148;53.332;6.922;2023-09-08T05:05:25;7.88;;;6.15;;
53253;SDS011;39148;53.332;6.922;2023-09-08T05:07:51;8.48;;;5.65;;
53253;SDS011;39148;53.332;6.922;2023-09-08T05:10:21;8.33;;;6.07;;
53253;SDS011;39148;53.332;6.922;2023-09-08T05:12:47;7.60;;;5.65;;
53253;SDS011;39148;53.332;6.922;2023-09-08T05:15:14;7.47;;;5.53;;
53253;SDS011;39148;53.332;6.922;2023-09-08T05:17:41;8.18;;;6.00;;
53253;SDS011;39148;53.332;6.922;2023-09-08T05:20:08;8.75;;;5.43;;
53253;SDS011;39148;53.332;6.922;2023-09-08T05:22:34;7.60;;;5.85;;
53253;SDS011;39148;53.332;6.922;2023-09-08T05:25:01;8.07;;;5.85;;
53253;SDS011;39148;53.332;6.922;2023-09-08T05:27:27;8.63;;;6.00;;
53253;SDS011;39148;53.332;6.922;2023-09-08T05:29:53;6.95;;;5.45;;
53253;SDS011;39148;53.332;6.922;2023-09-08T05:32:19;6.95;;;5.05;;
53253;SDS011;39148;53.332;6.922;2023-09-08T05:34:45;8.45;;;5.32;;
53253;SDS011;39148;53.332;6.922;2023-09-08T05:37:10;7.13;;;5.20;;
53253;SDS011;39148;53.332;6.922;2023-09-08T05:39:36;6.88;;;5.32;;
53253;SDS011;39148;53.332;6.922;2023-09-08T05:42:02;7.43;;;5.18;;
53253;SDS011;39148;53.332;6.922;2023-09-08T05:44:28;7.10;;;4.75;;
53253;SDS011;39148;53.332;6.922;2023-09-08T05:46:54;6.75;;;4.72;;
53253;SDS011;39148;53.332;6.922;2023-09-08T05:49:19;6.65;;;5.00;;
53253;SDS011;39148;53.332;6.922;2023-09-08T05:51:46;6.07;;;4.50;;
53253;SDS011;39148;53.332;6.922;2023-09-08T05:54:11;6.97;;;5.10;;
53253;SDS011;39148;53.332;6.922;2023-09-08T05:56:37;6.18;;;4.30;;
53253;SDS011;39148;53.332;6.922;2023-09-08T05:59:03;8.70;;;4.30;;
53253;SDS011;39148;53.332;6.922;2023-09-08T06:01:30;7.30;;;4.80;;
53253;SDS011;39148;53.332;6.922;2023-09-08T06:03:56;6.65;;;4.63;;
53253;SDS011;39148;53.332;6.922;2023-09-08T06:06:22;6.20;;;4.30;;
53253;SDS011;39148;53.332;6.922;2023-09-08T06:08:48;5.90;;;4.18;;
53253;SDS011;39148;53.332;6.922;2023-09-08T06:11:14;5.63;;;4.18;;
53253;SDS011;39148;53.332;6.922;2023-09-08T06:13:39;6.50;;;4.07;;
53253;SDS011;39148;53.332;6.922;2023-09-08T06:16:05;5.82;;;4.07;;
53253;SDS011;39148;53.332;6.922;2023-09-08T06:18:31;7.20;;;4.03;;
53253;SDS011;39148;53.332;6.922;2023-09-08T06:20:57;5.40;;;4.07;;
53253;SDS011;39148;53.332;6.922;2023-09-08T06:23:23;5.90;;;3.80;;
53253;SDS011;39148;53.332;6.922;2023-09-08T06:25:49;5.90;;;3.78;;
53253;SDS011;39148;53.332;6.922;2023-09-08T06:28:15;6.65;;;3.92;;
53253;SDS011;39148;53.332;6.922;2023-09-08T06:30:41;6.20;;;4.07;;
53253;SDS011;39148;53.332;6.922;2023-09-08T06:33:09;5.10;;;3.50;;
53253;SDS011;39148;53.332;6.922;2023-09-08T06:35:35;7.30;;;4.00;;
53253;SDS011;39148;53.332;6.922;2023-09-08T06:38:01;5.63;;;3.70;;
53253;SDS011;39148;53.332;6.922;2023-09-08T06:40:30;5.82;;;3.85;;
53253;SDS011;39148;53.332;6.922;2023-09-08T06:42:56;5.80;;;4.07;;
53253;SDS011;39148;53.332;6.922;2023-09-08T06:45:22;6.90;;;3.35;;
53253;SDS011;39148;53.332;6.922;2023-09-08T06:47:48;6.03;;;3.35;;
53253;SDS011;39148;53.332;6.922;2023-09-08T06:50:15;5.60;;;3.42;;
53253;SDS011;39148;53.332;6.922;2023-09-08T06:52:41;6.05;;;3.13;;
53253;SDS011;39148;53.332;6.922;2023-09-08T06:55:07;5.03;;;3.30;;
53253;SDS011;39148;53.332;6.922;2023-09-08T06:57:34;6.05;;;3.47;;
53253;SDS011;39148;53.332;6.922;2023-09-08T07:00:00;5.20;;;3.10;;
53253;SDS011;39148;53.332;6.922;2023-09-08T07:02:26;5.65;;;3.53;;
53253;SDS011;39148;53.332;6.922;2023-09-08T07:04:52;5.75;;;3.67;;
53253;SDS011;39148;53.332;6.922;2023-09-08T07:07:17;5.05;;;3.20;;
53253;SDS011;39148;53.332;6.922;2023-09-08T07:09:45;4.80;;;3.40;;
53253;SDS011;39148;53.332;6.922;2023-09-08T07:12:11;5.80;;;3.25;;
53253;SDS011;39148;53.332;6.922;2023-09-08T07:14:36;5.82;;;3.30;;
53253;SDS011;39148;53.332;6.922;2023-09-08T07:17:03;4.57;;;3.13;;
53253;SDS011;39148;53.332;6.922;2023-09-08T07:19:28;5.32;;;3.08;;
53253;SDS011;39148;53.332;6.922;2023-09-08T07:21:54;6.75;;;3.67;;
53253;SDS011;39148;53.332;6.922;2023-09-08T07:24:20;6.43;;;3.47;;
53253;SDS011;39148;53.332;6.922;2023-09-08T07:26:46;5.50;;;3.17;;
53253;SDS011;39148;53.332;6.922;2023-09-08T07:29:12;5.88;;;3.40;;
53253;SDS011;39148;53.332;6.922;2023-09-08T07:31:37;6.65;;;3.63;;
53253;SDS011;39148;53.332;6.922;2023-09-08T07:34:04;4.80;;;3.05;;
53253;SDS011;39148;53.332;6.922;2023-09-08T07:36:30;6.68;;;3.58;;
53253;SDS011;39148;53.332;6.922;2023-09-08T07:38:55;6.60;;;3.08;;
53253;SDS011;39148;53.332;6.922;2023-09-08T07:41:21;7.45;;;3.70;;
53253;SDS011;39148;53.332;6.922;2023-09-08T07:43:47;5.53;;;3.20;;
53253;SDS011;39148;53.332;6.922;2023-09-08T07:46:12;5.57;;;3.63;;
53253;SDS011;39148;53.332;6.922;2023-09-08T07:48:39;5.53;;;3.35;;
53253;SDS011;39148;53.332;6.922;2023-09-08T07:51:04;6.43;;;3.75;;
53253;SDS011;39148;53.332;6.922;2023-09-08T07:53:30;7.07;;;3.85;;
53253;SDS011;39148;53.332;6.922;2023-09-08T07:55:56;5.82;;;3.50;;
53253;SDS011;39148;53.332;6.922;2023-09-08T07:58:22;5.60;;;3.55;;
53253;SDS011;39148;53.332;6.922;2023-09-08T08:00:48;7.43;;;3.53;;
53253;SDS011;39148;53.332;6.922;2023-09-08T08:03:13;8.50;;;3.90;;
53253;SDS011;39148;53.332;6.922;2023-09-08T08:05:39;5.93;;;3.58;;
53253;SDS011;39148;53.332;6.922;2023-09-08T08:08:05;6.15;;;3.50;;
53253;SDS011;39148;53.332;6.922;2023-09-08T08:10:32;5.78;;;4.13;;
53253;SDS011;39148;53.332;6.922;2023-09-08T08:12:57;5.57;;;3.70;;
53253;SDS011;39148;53.332;6.922;2023-09-08T08:15:33;5.88;;;3.45;;
53253;SDS011;39148;53.332;6.922;2023-09-08T08:18:01;6.07;;;4.03;;
53253;SDS011;39148;53.332;6.922;2023-09-08T08:20:27;6.28;;;3.63;;
53253;SDS011;39148;53.332;6.922;2023-09-08T08:22:53;7.47;;;4.20;;
53253;SDS011;39148;53.332;6.922;2023-09-08T08:25:19;5.35;;;3.60;;
53253;SDS011;39148;53.332;6.922;2023-09-08T08:27:45;6.80;;;3.90;;
53253;SDS011;39148;53.332;6.922;2023-09-08T08:30:10;5.85;;;4.00;;
53253;SDS011;39148;53.332;6.922;2023-09-08T08:32:36;5.90;;;3.88;;
53253;SDS011;39148;53.332;6.922;2023-09-08T08:35:02;5.57;;;3.40;;
53253;SDS011;39148;53.332;6.922;2023-09-08T08:37:29;4.97;;;3.65;;
53253;SDS011;39148;53.332;6.922;2023-09-08T08:39:55;6.07;;;3.42;;
53253;SDS011;39148;53.332;6.922;2023-09-08T08:42:21;5.45;;;3.63;;
53253;SDS011;39148;53.332;6.922;2023-09-08T08:44:48;5.57;;;3.80;;
53253;SDS011;39148;53.332;6.922;2023-09-08T08:47:15;5.22;;;3.63;;
53253;SDS011;39148;53.332;6.922;2023-09-08T08:49:43;5.28;;;3.40;;
53253;SDS011;39148;53.332;6.922;2023-09-08T08:52:12;5.30;;;3.70;;
53253;SDS011;39148;53.332;6.922;2023-09-08T08:54:39;6.47;;;4.13;;
53253;SDS011;39148;53.332;6.922;2023-09-08T08:57:06;5.93;;;3.67;;
53253;SDS011;39148;53.332;6.922;2023-09-08T08:59:32;8.07;;;3.50;;
53253;SDS011;39148;53.332;6.922;2023-09-08T09:01:58;6.43;;;3.38;;
53253;SDS011;39148;53.332;6.922;2023-09-08T09:04:25;6.15;;;3.47;;
53253;SDS011;39148;53.332;6.922;2023-09-08T09:06:54;5.97;;;3.22;;
53253;SDS011;39148;53.332;6.922;2023-09-08T09:09:20;4.65;;;3.03;;
53253;SDS011;39148;53.332;6.922;2023-09-08T09:11:46;5.30;;;3.70;;
53253;SDS011;39148;53.332;6.922;2023-09-08T09:14:12;8.43;;;3.75;;
53253;SDS011;39148;53.332;6.922;2023-09-08T09:16:40;4.72;;;3.20;;
53253;SDS011;39148;53.332;6.922;2023-09-08T09:19:07;5.50;;;3.35;;
53253;SDS011;39148;53.332;6.922;2023-09-08T09:24:15;5.07;;;3.10;;
53253;SDS011;39148;53.332;6.922;2023-09-08T09:26:42;6.78;;;3.40;;
53253;SDS011;39148;53.332;6.922;2023-09-08T09:29:12;5.28;;;3.30;;
53253;SDS011;39148;53.332;6.922;2023-09-08T09:31:49;4.88;;;3.03;;
53253;SDS011;39148;53.332;6.922;2023-09-08T09:34:20;4.75;;;3.20;;
53253;SDS011;39148;53.332;6.922;2023-09-08T09:36:47;4.75;;;3.10;;
53253;SDS011;39148;53.332;6.922;2023-09-08T09:39:20;5.72;;;3.22;;
53253;SDS011;39148;53.332;6.922;2023-09-08T09:41:49;4.85;;;2.55;;
53253;SDS011;39148;53.332;6.922;2023-09-08T09:44:18;4.50;;;3.10;;
53253;SDS011;39148;53.332;6.922;2023-09-08T09:46:47;4.72;;;2.78;;
53253;SDS011;39148;53.332;6.922;2023-09-08T09:49:14;5.07;;;3.00;;
53253;SDS011;39148;53.332;6.922;2023-09-08T09:54:15;4.68;;;3.05;;
53253;SDS011;39148;53.332;6.922;2023-09-08T09:56:41;4.60;;;2.80;;
53253;SDS011;39148;53.332;6.922;2023-09-08T09:59:09;4.60;;;2.88;;
53253;SDS011;39148;53.332;6.922;2023-09-08T10:01:36;6.40;;;3.00;;
53253;SDS011;39148;53.332;6.922;2023-09-08T10:04:03;6.57;;;3.05;;
53253;SDS011;39148;53.332;6.922;2023-09-08T10:06:33;6.13;;;3.17;;
53253;SDS011;39148;53.332;6.922;2023-09-08T10:09:00;4.72;;;2.72;;
53253;SDS011;39148;53.332;6.922;2023-09-08T10:13:59;5.05;;;2.97;;
53253;SDS011;39148;53.332;6.922;2023-09-08T10:16:26;5.50;;;2.70;;
53253;SDS011;39148;53.332;6.922;2023-09-08T10:21:23;8.20;;;2.95;;
53253;SDS011;39148;53.332;6.922;2023-09-08T10:27:09;5.40;;;2.60;;
53253;SDS011;39148;53.332;6.922;2023-09-08T10:29:37;5.45;;;3.00;;
53253;SDS011;39148;53.332;6.922;2023-09-08T10:32:03;6.38;;;2.90;;
53253;SDS011;39148;53.332;6.922;2023-09-08T10:34:31;4.28;;;2.63;;
53253;SDS011;39148;53.332;6.922;2023-09-08T10:36:58;4.43;;;2.70;;
53253;SDS011;39148;53.332;6.922;2023-09-08T10:39:34;5.80;;;2.97;;
53253;SDS011;39148;53.332;6.922;2023-09-08T10:47:14;6.55;;;3.10;;
53253;SDS011;39148;53.332;6.922;2023-09-08T10:49:44;6.05;;;2.75;;
53253;SDS011;39148;53.332;6.922;2023-09-08T10:52:12;4.32;;;2.72;;
53253;SDS011;39148;53.332;6.922;2023-09-08T10:54:44;6.30;;;2.80;;
53253;SDS011;39148;53.332;6.922;2023-09-08T10:57:18;4.22;;;2.95;;
53253;SDS011;39148;53.332;6.922;2023-09-08T11:00:00;6.93;;;2.63;;
53253;SDS011;39148;53.332;6.922;2023-09-08T11:05:14;5.00;;;3.00;;
53253;SDS011;39148;53.332;6.922;2023-09-08T11:07:44;3.95;;;2.58;;
53253;SDS011;39148;53.332;6.922;2023-09-08T11:10:11;4.38;;;2.80;;
53253;SDS011;39148;53.332;6.922;2023-09-08T11:12:37;4.90;;;2.65;;
53253;SDS011;39148;53.332;6.922;2023-09-08T11:15:07;5.30;;;3.00;;
53253;SDS011;39148;53.332;6.922;2023-09-08T11:17:34;4.40;;;2.78;;
53253;SDS011;39148;53.332;6.922;2023-09-08T11:20:01;7.28;;;2.85;;
53253;SDS011;39148;53.332;6.922;2023-09-08T11:22:34;7.25;;;2.83;;
53253;SDS011;39148;53.332;6.922;2023-09-08T11:25:00;7.63;;;3.22;;
53253;SDS011;39148;53.332;6.922;2023-09-08T11:27:29;4.95;;;2.78;;
53253;SDS011;39148;53.332;6.922;2023-09-08T11:29:55;5.72;;;2.92;;
53253;SDS011;39148;53.332;6.922;2023-09-08T11:32:22;4.60;;;2.97;;
53253;SDS011;39148;53.332;6.922;2023-09-08T11:35:00;4.80;;;2.55;;
53253;SDS011;39148;53.332;6.922;2023-09-08T11:37:43;5.28;;;3.13;;
53253;SDS011;39148;53.332;6.922;2023-09-08T11:40:10;4.65;;;2.90;;
53253;SDS011;39148;53.332;6.922;2023-09-08T11:42:39;4.95;;;3.08;;
53253;SDS011;39148;53.332;6.922;2023-09-08T11:47:37;8.95;;;2.90;;
53253;SDS011;39148;53.332;6.922;2023-09-08T11:50:08;5.78;;;2.70;;
53253;SDS011;39148;53.332;6.922;2023-09-08T11:52:36;4.50;;;2.80;;
53253;SDS011;39148;53.332;6.922;2023-09-08T11:55:04;5.57;;;2.83;;
53253;SDS011;39148;53.332;6.922;2023-09-08T11:57:30;4.10;;;2.53;;
53253;SDS011;39148;53.332;6.922;2023-09-08T11:59:57;5.07;;;2.90;;
53253;SDS011;39148;53.332;6.922;2023-09-08T12:02:23;3.88;;;2.75;;
53253;SDS011;39148;53.332;6.922;2023-09-08T12:04:52;4.80;;;2.72;;
53253;SDS011;39148;53.332;6.922;2023-09-08T12:07:19;5.32;;;3.10;;
53253;SDS011;39148;53.332;6.922;2023-09-08T12:09:45;6.55;;;2.78;;
53253;SDS011;39148;53.332;6.922;2023-09-08T12:12:11;4.50;;;2.60;;
53253;SDS011;39148;53.332;6.922;2023-09-08T12:14:40;5.63;;;3.20;;
53253;SDS011;39148;53.332;6.922;2023-09-08T12:17:07;5.50;;;2.80;;
53253;SDS011;39148;53.332;6.922;2023-09-08T12:19:33;5.72;;;2.60;;
53253;SDS011;39148;53.332;6.922;2023-09-08T12:22:02;5.10;;;2.65;;
53253;SDS011;39148;53.332;6.922;2023-09-08T12:27:17;6.35;;;2.67;;
53253;SDS011;39148;53.332;6.922;2023-09-08T12:29:57;6.85;;;2.78;;
53253;SDS011;39148;53.332;6.922;2023-09-08T12:32:25;5.30;;;2.70;;
53253;SDS011;39148;53.332;6.922;2023-09-08T12:34:54;4.07;;;2.50;;
53253;SDS011;39148;53.332;6.922;2023-09-08T12:37:24;8.02;;;2.78;;
53253;SDS011;39148;53.332;6.922;2023-09-08T12:39:54;5.47;;;3.00;;
53253;SDS011;39148;53.332;6.922;2023-09-08T12:42:20;4.55;;;2.80;;
53253;SDS011;39148;53.332;6.922;2023-09-08T12:44:46;7.05;;;2.83;;
53253;SDS011;39148;53.332;6.922;2023-09-08T12:47:12;6.18;;;2.83;;
53253;SDS011;39148;53.332;6.922;2023-09-08T12:49:38;5.18;;;2.83;;
53253;SDS011;39148;53.332;6.922;2023-09-08T12:52:05;4.65;;;2.42;;
53253;SDS011;39148;53.332;6.922;2023-09-08T12:54:31;4.82;;;2.60;;
53253;SDS011;39148;53.332;6.922;2023-09-08T12:56:57;5.05;;;2.80;;
53253;SDS011;39148;53.332;6.922;2023-09-08T12:59:23;5.30;;;3.10;;
53253;SDS011;39148;53.332;6.922;2023-09-08T13:01:49;4.50;;;2.72;;
53253;SDS011;39148;53.332;6.922;2023-09-08T13:04:14;4.68;;;2.85;;
53253;SDS011;39148;53.332;6.922;2023-09-08T13:06:40;5.57;;;2.78;;
53253;SDS011;39148;53.332;6.922;2023-09-08T13:09:06;4.47;;;2.50;;
53253;SDS011;39148;53.332;6.922;2023-09-08T13:11:33;5.32;;;3.00;;
53253;SDS011;39148;53.332;6.922;2023-09-08T13:13:59;6.65;;;2.85;;
53253;SDS011;39148;53.332;6.922;2023-09-08T13:16:24;4.55;;;2.50;;
53253;SDS011;39148;53.332;6.922;2023-09-08T13:18:50;5.32;;;2.72;;
53253;SDS011;39148;53.332;6.922;2023-09-08T13:21:16;4.57;;;2.72;;
53253;SDS011;39148;53.332;6.922;2023-09-08T13:23:42;4.68;;;3.00;;
53253;SDS011;39148;53.332;6.922;2023-09-08T13:26:08;6.25;;;2.88;;
53253;SDS011;39148;53.332;6.922;2023-09-08T13:28:33;5.63;;;2.92;;
53253;SDS011;39148;53.332;6.922;2023-09-08T13:30:59;5.45;;;2.63;;
53253;SDS011;39148;53.332;6.922;2023-09-08T13:33:25;4.50;;;2.42;;
53253;SDS011;39148;53.332;6.922;2023-09-08T13:35:50;5.28;;;2.80;;
53253;SDS011;39148;53.332;6.922;2023-09-08T13:38:19;4.13;;;2.78;;
53253;SDS011;39148;53.332;6.922;2023-09-08T13:40:45;3.95;;;2.67;;
53253;SDS011;39148;53.332;6.922;2023-09-08T13:43:11;6.00;;;3.15;;
53253;SDS011;39148;53.332;6.922;2023-09-08T13:45:36;4.18;;;2.25;;
53253;SDS011;39148;53.332;6.922;2023-09-08T13:48:02;6.47;;;2.70;;
53253;SDS011;39148;53.332;6.922;2023-09-08T13:50:31;4.28;;;2.50;;
53253;SDS011;39148;53.332;6.922;2023-09-08T13:52:57;4.32;;;2.60;;
53253;SDS011;39148;53.332;6.922;2023-09-08T13:55:23;4.13;;;2.40;;
53253;SDS011;39148;53.332;6.922;2023-09-08T13:57:50;4.93;;;2.60;;
53253;SDS011;39148;53.332;6.922;2023-09-08T14:00:16;5.60;;;2.60;;
53253;SDS011;39148;53.332;6.922;2023-09-08T14:02:42;5.20;;;2.80;;
53253;SDS011;39148;53.332;6.922;2023-09-08T14:05:11;3.95;;;2.50;;
53253;SDS011;39148;53.332;6.922;2023-09-08T14:07:37;3.80;;;2.28;;
53253;SDS011;39148;53.332;6.922;2023-09-08T14:10:02;3.90;;;2.45;;
53253;SDS011;39148;53.332;6.922;2023-09-08T14:12:33;3.80;;;2.35;;
53253;SDS011;39148;53.332;6.922;2023-09-08T14:14:58;4.45;;;2.70;;
53253;SDS011;39148;53.332;6.922;2023-09-08T14:17:24;4.07;;;2.42;;
53253;SDS011;39148;53.332;6.922;2023-09-08T14:19:50;5.55;;;2.50;;
53253;SDS011;39148;53.332;6.922;2023-09-08T14:22:16;5.35;;;2.65;;
53253;SDS011;39148;53.332;6.922;2023-09-08T14:24:41;3.90;;;2.35;;
53253;SDS011;39148;53.332;6.922;2023-09-08T14:27:07;4.78;;;2.70;;
53253;SDS011;39148;53.332;6.922;2023-09-08T14:29:33;3.90;;;2.35;;
53253;SDS011;39148;53.332;6.922;2023-09-08T14:32:00;4.43;;;2.60;;
53253;SDS011;39148;53.332;6.922;2023-09-08T14:34:27;3.97;;;2.28;;
53253;SDS011;39148;53.332;6.922;2023-09-08T14:36:53;4.13;;;2.42;;
53253;SDS011;39148;53.332;6.922;2023-09-08T14:39:19;4.05;;;2.65;;
53253;SDS011;39148;53.332;6.922;2023-09-08T14:41:45;3.88;;;2.20;;
53253;SDS011;39148;53.332;6.922;2023-09-08T14:44:11;3.97;;;2.40;;
53253;SDS011;39148;53.332;6.922;2023-09-08T14:46:37;3.25;;;2.20;;
53253;SDS011;39148;53.332;6.922;2023-09-08T14:49:02;4.32;;;2.60;;
53253;SDS011;39148;53.332;6.922;2023-09-08T14:51:28;4.07;;;2.10;;
53253;SDS011;39148;53.332;6.922;2023-09-08T14:53:54;5.82;;;2.55;;
53253;SDS011;39148;53.332;6.922;2023-09-08T14:56:20;3.75;;;2.25;;
53253;SDS011;39148;53.332;6.922;2023-09-08T14:58:45;5.53;;;2.50;;
53253;SDS011;39148;53.332;6.922;2023-09-08T15:01:11;3.83;;;2.33;;
53253;SDS011;39148;53.332;6.922;2023-09-08T15:03:39;3.90;;;2.30;;
53253;SDS011;39148;53.332;6.922;2023-09-08T15:06:05;4.20;;;2.30;;
53253;SDS011;39148;53.332;6.922;2023-09-08T15:08:31;3.88;;;2.20;;
53253;SDS011;39148;53.332;6.922;2023-09-08T15:10:58;4.25;;;2.40;;
53253;SDS011;39148;53.332;6.922;2023-09-08T15:13:24;3.40;;;2.13;;
53253;SDS011;39148;53.332;6.922;2023-09-08T15:15:50;4.22;;;2.50;;
53253;SDS011;39148;53.332;6.922;2023-09-08T15:18:16;3.60;;;2.15;;